»·PEaware :: N904CP KAUS-KPIE

N904CP :: KAUS-KPIE

FLIGHT INFORMATION

Flight Status: Arrived
Operator: Privately registered:
United States
More flights under this callsign
Pilot: Juan D. (11620)
Aircraft: BOEING 737-800
(B738)
More flights by this aircraft type
Origin: KAUS Austin Bergstrom Intl
United States
Destination: KPIE St Petersburg-Clearwater Intl
United States
More flights between these airports :: More routes between these airports
Route:
File this flight plan on PilotEdge
Remarks:
Altitude:
(Current/Filed)
18,000ft
Speed:
(Current/Filed)
450kts
Departed: 15-Apr-18 06:18 AM
Arrived: 15-Apr-18 07:59 AM
Distance/Time
Traveled:
797nm/1:41
Distance/Time
To Go:
Arrived

Flight Plot

Page will automatically refresh every two minutes.

Flight plan parsing failed; only flown route is shown


Map Options




Map Legend


Flown Route
Filed Route
Departure Airport
Arrival Airport
Navaid (VOR, NDB)
Fix

Horizontal Profiles

Position Reports

Time Latitude Longitude Heading Altitude Ground
Speed
15-Apr-18 06:16 30.179492 -97.657254 358 549ft 0kts
15-Apr-18 06:17 30.207067 -97.657642 357 946ft 220kts
15-Apr-18 06:18 30.262490 -97.642108 60 4691ft 174kts
15-Apr-18 06:19 30.263532 -97.582771 87 6852ft 252kts
15-Apr-18 06:20 30.265295 -97.487864 86 8529ft 319kts
15-Apr-18 06:21 30.269572 -97.373068 91 11107ft 382kts
15-Apr-18 06:22 30.261040 -97.250391 100 13578ft 395kts
15-Apr-18 06:23 30.244364 -97.122536 102 16069ft 411kts
15-Apr-18 06:24 30.228042 -96.985965 102 17912ft 434kts
15-Apr-18 06:25 30.212397 -96.848733 93 18107ft 441kts
15-Apr-18 06:26 30.177510 -96.707415 95 18730ft 451kts
15-Apr-18 06:27 30.140928 -96.567453 98 19303ft 453kts
15-Apr-18 06:28 30.111023 -96.422566 95 18787ft 462kts
15-Apr-18 06:29 30.088111 -96.277634 87 18169ft 466kts
15-Apr-18 06:30 30.074326 -96.124741 88 18161ft 492kts
15-Apr-18 06:31 30.060704 -95.968273 88 19092ft 497kts
15-Apr-18 06:32 30.047227 -95.807196 88 21644ft 519kts
15-Apr-18 06:33 30.033749 -95.638415 88 24224ft 537kts
15-Apr-18 06:34 30.019848 -95.465716 89 26801ft 548kts
15-Apr-18 06:35 30.002798 -95.290283 90 28862ft 564kts
15-Apr-18 06:36 29.985169 -95.109161 90 30710ft 567kts
15-Apr-18 06:37 29.964939 -94.929502 92 32555ft 568kts
15-Apr-18 06:38 29.948220 -94.748763 92 34318ft 571kts
15-Apr-18 06:39 29.930981 -94.566177 92 35081ft 563kts
15-Apr-18 06:40 29.910417 -94.393473 94 35101ft 550kts
15-Apr-18 06:41 29.889136 -94.221726 94 35064ft 548kts
15-Apr-18 06:42 29.867757 -94.047330 94 34242ft 556kts
15-Apr-18 06:43 29.845042 -93.870826 96 33213ft 558kts
15-Apr-18 06:44 29.819263 -93.694982 96 33065ft 559kts
15-Apr-18 06:45 29.794264 -93.518732 93 33061ft 558kts
15-Apr-18 06:46 29.773863 -93.342446 94 33028ft 558kts
15-Apr-18 06:47 29.753730 -93.165502 94 33016ft 557kts
15-Apr-18 06:48 29.736826 -92.989269 94 33015ft 562kts
15-Apr-18 06:49 29.729356 -92.811283 95 33018ft 553kts
15-Apr-18 06:50 29.716931 -92.635197 97 33024ft 553kts
15-Apr-18 06:51 29.710503 -92.549677 97 33016ft 553kts
15-Apr-18 06:52 29.696851 -92.373781 98 31008ft 549kts
15-Apr-18 06:53 29.678512 -92.198662 100 30985ft 566kts
15-Apr-18 06:54 29.657162 -92.018388 100 30981ft 569kts
15-Apr-18 06:55 29.636199 -91.837975 100 30981ft 569kts
15-Apr-18 06:56 29.614740 -91.657950 102 30970ft 569kts
15-Apr-18 06:57 29.579981 -91.482027 105 30981ft 568kts
15-Apr-18 06:58 29.544891 -91.305466 105 30967ft 567kts
15-Apr-18 06:59 29.510735 -91.128789 105 30964ft 569kts
15-Apr-18 07:00 29.483773 -90.950351 105 30955ft 566kts
15-Apr-18 07:01 29.461978 -90.772655 105 30956ft 566kts
15-Apr-18 07:02 29.440055 -90.592062 105 30963ft 567kts
15-Apr-18 07:03 29.418617 -90.413076 105 30970ft 568kts
15-Apr-18 07:04 29.397607 -90.234524 105 30957ft 568kts
15-Apr-18 07:05 29.376754 -90.055075 105 30960ft 567kts
15-Apr-18 07:06 29.356284 -89.876379 104 30956ft 567kts
15-Apr-18 07:07 29.336117 -89.697252 104 30948ft 567kts
15-Apr-18 07:08 29.316196 -89.518204 104 30933ft 568kts
15-Apr-18 07:09 29.296561 -89.339127 104 30929ft 567kts
15-Apr-18 07:10 29.277338 -89.160505 104 30909ft 568kts
15-Apr-18 07:11 29.258144 -88.980923 104 30917ft 568kts
15-Apr-18 07:12 29.244504 -88.831953 104 30916ft 562kts
15-Apr-18 07:13 29.230819 -88.654214 103 30914ft 561kts
15-Apr-18 07:14 29.217564 -88.477126 103 30909ft 561kts
15-Apr-18 07:15 29.204748 -88.302004 104 30892ft 560kts
15-Apr-18 07:16 29.192173 -88.124721 103 30884ft 560kts
15-Apr-18 07:17 29.177792 -87.917619 103 30885ft 561kts
15-Apr-18 07:18 29.165785 -87.740084 103 30886ft 560kts
15-Apr-18 07:19 29.155979 -87.591934 103 30889ft 560kts
15-Apr-18 07:20 29.140863 -87.415168 111 30887ft 549kts
15-Apr-18 07:21 29.098657 -87.250261 117 30868ft 541kts
15-Apr-18 07:22 29.052325 -87.087146 122 30852ft 535kts
15-Apr-18 07:23 28.989671 -86.936525 126 30854ft 522kts
15-Apr-18 07:24 28.918965 -86.792976 126 30848ft 519kts
15-Apr-18 07:25 28.848038 -86.650084 126 30846ft 518kts
15-Apr-18 07:26 28.776917 -86.506553 126 30813ft 522kts
15-Apr-18 07:27 28.705884 -86.362970 126 30780ft 522kts
15-Apr-18 07:28 28.634989 -86.219182 126 30771ft 522kts
15-Apr-18 07:29 28.564115 -86.075122 126 30558ft 523kts
15-Apr-18 07:30 28.494015 -85.930181 125 29567ft 525kts
15-Apr-18 07:31 28.424886 -85.784145 124 28573ft 528kts
15-Apr-18 07:32 28.356785 -85.635500 124 27591ft 533kts
15-Apr-18 07:33 28.289361 -85.485464 122 26606ft 535kts
15-Apr-18 07:34 28.224820 -85.333359 122 25621ft 538kts
15-Apr-18 07:35 28.160499 -85.180329 121 24588ft 541kts
15-Apr-18 07:36 28.095942 -85.026273 120 23898ft 542kts
15-Apr-18 07:37 28.030663 -84.871763 119 23907ft 542kts
15-Apr-18 07:38 27.971858 -84.728111 119 22368ft 493kts
15-Apr-18 07:39 27.915913 -84.584783 118 20858ft 499kts
15-Apr-18 07:40 27.859795 -84.441238 118 19395ft 502kts
15-Apr-18 07:41 27.803193 -84.296652 118 18528ft 504kts
15-Apr-18 07:42 27.759983 -84.153920 98 17353ft 486kts
15-Apr-18 07:43 27.784105 -84.000770 80 15949ft 498kts
15-Apr-18 07:44 27.820926 -83.849070 75 15905ft 503kts
15-Apr-18 07:45 27.868433 -83.709828 70 15905ft 472kts
15-Apr-18 07:46 27.910349 -83.571566 79 14540ft 459kts
15-Apr-18 07:47 27.940238 -83.433031 79 13076ft 449kts
15-Apr-18 07:48 27.953416 -83.296216 90 11598ft 432kts
15-Apr-18 07:49 27.960682 -83.165211 90 10088ft 391kts
15-Apr-18 07:50 27.978162 -83.050767 82 8574ft 355kts
15-Apr-18 07:51 28.004925 -82.945275 74 7096ft 346kts
15-Apr-18 07:52 28.038341 -82.846145 71 5607ft 327kts
15-Apr-18 07:53 28.070216 -82.754057 74 4098ft 304kts
15-Apr-18 07:54 28.037285 -82.697259 170 2522ft 213kts
15-Apr-18 07:55 27.987801 -82.691541 175 1260ft 160kts
15-Apr-18 07:56 27.946429 -82.695145 165 439ft 145kts
15-Apr-18 07:57 27.913037 -82.688942 168 18ft 75kts
15-Apr-18 07:58 27.904741 -82.687500 172 17ft 30kts
15-Apr-18 07:59 27.905740 -82.689249 350 17ft 10kts
15-Apr-18 08:00 27.907744 -82.690774 199 17ft 0kts
15-Apr-18 08:01 27.907744 -82.690774 199 17ft 0kts

Navigation Log

Ident Type
Flight plan parsing failed, navigation log unavailable